Time;durP1;ratioP1;P1;durP2;ratioP2;P2;SDS_P1;SDS_P2;PMS_P1;PMS_P2;Temp;Humidity;BMP_temperature;BMP_pressure;BME280_temperature;BME280_humidity;BME280_pressure;Samples;Min_cycle;Max_cycle;Signal;HPM_P1;HPM_P2
2021/08/14 00:00:07;;;;;;;3.10;2.75;;;;;;;27.78;35.88;100521.03;5071378;28;20021;-71
2021/08/14 00:02:32;;;;;;;5.00;3.03;;;;;;;27.78;35.89;100532.47;5054523;28;20543;-70
2021/08/14 00:04:58;;;;;;;2.67;2.47;;;;;;;27.66;36.11;100532.09;5071454;28;20120;-70
2021/08/14 00:07:26;;;;;;;3.22;2.83;;;;;;;27.77;36.18;100525.16;5054946;28;20099;-71
2021/08/14 00:09:52;;;;;;;3.80;2.90;;;;;;;27.68;35.90;100515.25;5054639;28;20108;-71
2021/08/14 00:12:18;;;;;;;3.38;3.08;;;;;;;27.72;36.29;100522.94;5071306;28;20123;-70
2021/08/14 00:14:43;;;;;;;3.70;2.90;;;;;;;27.77;35.85;100531.66;5054814;28;20403;-70
2021/08/14 00:17:11;;;;;;;4.63;3.22;;;;;;;27.87;35.56;100526.78;5053646;28;20478;-70
2021/08/14 00:19:40;;;;;;;3.70;3.10;;;;;;;27.87;35.96;100529.63;5070910;28;20029;-70
2021/08/14 00:22:06;;;;;;;3.03;2.83;;;;;;;27.75;35.71;100521.97;5071125;28;20029;-70
2021/08/14 00:24:31;;;;;;;4.03;3.45;;;;;;;27.72;35.63;100523.72;5070829;28;20484;-71
2021/08/14 00:26:59;;;;;;;3.42;3.13;;;;;;;27.79;35.87;100519.75;5070366;28;20045;-71
2021/08/14 00:29:25;;;;;;;3.35;3.03;;;;;;;27.83;35.55;100517.53;5055946;28;20020;-70
2021/08/14 00:31:50;;;;;;;3.08;2.80;;;;;;;27.81;35.50;100520.88;5070727;28;20109;-70
2021/08/14 00:34:16;;;;;;;3.58;3.25;;;;;;;27.70;35.64;100526.28;5070634;28;20136;-70
2021/08/14 00:36:41;;;;;;;5.65;3.08;;;;;;;27.65;36.00;100521.94;5071003;28;20060;-71
2021/08/14 00:39:07;;;;;;;3.67;3.20;;;;;;;27.63;36.01;100523.66;5070462;28;20488;-68
2021/08/14 00:41:36;;;;;;;3.47;3.10;;;;;;;27.79;35.84;100523.41;5071104;28;20036;-69
2021/08/14 00:44:02;;;;;;;3.88;3.17;;;;;;;27.80;35.76;100518.47;5069966;28;20035;-69
2021/08/14 00:46:29;;;;;;;3.20;2.92;;;;;;;27.73;36.22;100513.06;5070627;28;20037;-69
2021/08/14 00:48:59;;;;;;;3.83;3.30;;;;;;;27.74;36.47;100508.94;5053478;28;20033;-70
2021/08/14 00:51:26;;;;;;;3.28;3.00;;;;;;;27.81;35.87;100517.22;5070213;28;20032;-69
2021/08/14 00:53:54;;;;;;;3.22;2.90;;;;;;;27.72;36.05;100508.63;5054800;28;20041;-68
2021/08/14 00:56:26;;;;;;;3.92;2.90;;;;;;;27.68;35.86;100517.31;5070616;28;20040;-68
2021/08/14 00:58:58;;;;;;;3.22;2.95;;;;;;;27.73;36.24;100513.88;5070053;28;20028;-69
2021/08/14 01:01:27;;;;;;;4.57;3.15;;;;;;;27.65;36.01;100506.84;5070104;28;20049;-70
2021/08/14 01:03:56;;;;;;;3.53;3.22;;;;;;;27.66;35.80;100497.78;5052808;28;20167;-69
2021/08/14 01:06:24;;;;;;;3.38;2.90;;;;;;;27.69;36.00;100501.75;5070484;28;20024;-69
2021/08/14 01:08:56;;;;;;;6.78;3.00;;;;;;;27.78;34.92;100501.81;5069841;28;20029;-69
2021/08/14 01:11:26;;;;;;;4.38;2.72;;;;;;;27.79;35.10;100506.25;5053603;28;20029;-69
2021/08/14 01:13:55;;;;;;;4.40;3.08;;;;;;;27.92;34.55;100508.97;5053404;28;20092;-68
2021/08/14 01:16:21;;;;;;;2.97;2.78;;;;;;;27.98;34.68;100495.63;5053013;28;20035;-69
2021/08/14 01:18:47;;;;;;;3.75;2.88;;;;;;;28.07;33.26;100498.50;5070081;28;20029;-70
2021/08/14 01:21:24;;;;;;;3.35;3.05;;;;;;;27.98;34.49;100495.63;5070166;28;20048;-69
2021/08/14 01:23:54;;;;;;;5.50;3.25;;;;;;;27.96;34.56;100498.16;5069746;28;20110;-69
2021/08/14 01:26:21;;;;;;;3.15;2.80;;;;;;;27.99;35.07;100493.56;5069537;28;20155;-70
2021/08/14 01:28:49;;;;;;;2.95;2.60;;;;;;;28.01;34.63;100497.53;5069015;28;20047;-71
2021/08/14 01:31:19;;;;;;;3.08;2.88;;;;;;;27.90;35.05;100502.94;5069373;28;20033;-70
2021/08/14 01:33:45;;;;;;;2.60;2.40;;;;;;;27.81;34.75;100509.44;5069549;28;20474;-68
2021/08/14 01:36:13;;;;;;;3.60;2.88;;;;;;;27.88;34.49;100499.75;5052823;28;20124;-70
2021/08/14 01:38:48;;;;;;;5.40;3.00;;;;;;;27.81;34.55;100505.78;5069200;28;20029;-69
2021/08/14 01:41:14;;;;;;;5.22;2.92;;;;;;;27.74;34.44;100508.94;5069161;28;20032;-70
2021/08/14 01:43:57;;;;;;;2.97;2.72;;;;;;;27.77;34.60;100508.81;5069127;28;20112;-69
2021/08/14 01:46:24;;;;;;;3.10;2.70;;;;;;;27.67;34.32;100505.09;5069201;28;20029;-70
2021/08/14 01:48:50;;;;;;;2.90;2.70;;;;;;;27.78;34.42;100498.94;5052544;28;20025;-69
2021/08/14 01:51:15;;;;;;;2.92;2.65;;;;;;;27.81;34.76;100508.66;5069049;28;20032;-69
2021/08/14 01:53:48;;;;;;;5.65;2.60;;;;;;;27.82;34.40;100493.09;5069879;28;20032;-70
2021/08/14 01:56:15;;;;;;;2.85;2.65;;;;;;;27.75;34.42;100505.63;5052425;28;20032;-71
2021/08/14 01:58:46;;;;;;;6.10;2.85;;;;;;;27.67;34.61;100505.09;5052406;28;20063;-71
2021/08/14 02:01:15;;;;;;;2.92;2.72;;;;;;;27.54;34.86;100495.88;5069252;28;20025;-70
2021/08/14 02:03:46;;;;;;;4.75;3.00;;;;;;;27.63;33.16;100487.28;5069198;28;20064;-69
2021/08/14 02:06:12;;;;;;;2.80;2.55;;;;;;;27.56;33.91;100487.59;5052846;28;20095;-71
2021/08/14 02:08:37;;;;;;;5.03;2.53;;;;;;;27.65;34.18;100492.56;5052389;28;20464;-70
2021/08/14 02:11:10;;;;;;;3.72;3.00;;;;;;;27.58;34.13;100490.00;5052155;28;20017;-69
2021/08/14 02:13:40;;;;;;;3.45;2.58;;;;;;;27.62;34.21;100491.44;5053206;28;20024;-70
2021/08/14 02:16:06;;;;;;;3.85;2.90;;;;;;;27.58;34.41;100490.78;5069248;28;20029;-70
2021/08/14 02:18:34;;;;;;;2.33;2.13;;;;;;;27.46;34.01;100483.13;5069264;28;20375;-69
2021/08/14 02:21:00;;;;;;;3.17;2.88;;;;;;;27.51;33.87;100488.22;5069097;28;20123;-70
2021/08/14 02:23:26;;;;;;;4.93;4.53;;;;;;;27.52;34.02;100486.97;5051962;28;20033;-69
2021/08/14 02:25:52;;;;;;;11.80;10.55;;;;;;;27.46;33.77;100483.13;5051758;28;20033;-70
2021/08/14 02:28:20;;;;;;;7.55;6.82;;;;;;;27.40;33.41;100482.97;5051813;28;20041;-69
2021/08/14 02:30:49;;;;;;;5.32;4.72;;;;;;;27.40;33.34;100479.31;5051869;28;20066;-69
2021/08/14 02:33:18;;;;;;;4.75;4.35;;;;;;;27.38;33.65;100481.88;5052390;28;20029;-69
2021/08/14 02:35:47;;;;;;;5.13;4.35;;;;;;;27.42;33.49;100479.63;5068569;28;20037;-70
2021/08/14 02:38:19;;;;;;;7.72;6.68;;;;;;;27.45;33.32;100475.84;5068347;28;20025;-70
2021/08/14 02:40:48;;;;;;;4.53;4.13;;;;;;;27.47;32.96;100479.00;5052840;28;20036;-69
2021/08/14 02:43:17;;;;;;;6.45;5.85;;;;;;;27.50;32.85;100478.06;5068722;28;20495;-69
2021/08/14 02:45:47;;;;;;;8.02;6.10;;;;;;;27.55;32.60;100474.59;5052036;28;20025;-69
2021/08/14 02:48:15;;;;;;;4.25;3.85;;;;;;;27.55;31.96;100474.59;5068360;28;20029;-70
2021/08/14 02:50:42;;;;;;;4.30;3.90;;;;;;;27.54;32.25;100477.91;5052253;28;20310;-70
2021/08/14 02:53:08;;;;;;;4.55;3.97;;;;;;;27.50;31.93;100477.28;5068404;28;20096;-69
2021/08/14 02:55:33;;;;;;;5.40;4.28;;;;;;;27.53;32.00;100477.13;5068879;28;20036;-70
2021/08/14 02:58:04;;;;;;;2.95;2.75;;;;;;;27.52;31.76;100478.38;5051569;28;20036;-70
2021/08/14 03:00:33;;;;;;;3.25;2.95;;;;;;;27.59;31.64;100474.41;5069165;28;20036;-70
2021/08/14 03:03:01;;;;;;;2.60;2.40;;;;;;;27.64;30.75;100483.16;5051900;28;20403;-71
2021/08/14 03:05:26;;;;;;;4.40;2.42;;;;;;;27.62;31.35;100479.22;5051560;28;20040;-70
2021/08/14 03:07:52;;;;;;;2.97;2.67;;;;;;;27.60;31.09;100484.63;5051513;28;20054;-70
2021/08/14 03:10:21;;;;;;;2.47;2.30;;;;;;;27.53;31.08;100482.03;5068791;28;20041;-70
2021/08/14 03:12:46;;;;;;;2.72;2.53;;;;;;;27.48;31.27;100480.59;5068539;28;20040;-71
2021/08/14 03:15:15;;;;;;;4.90;2.75;;;;;;;27.51;30.58;100473.94;5068963;28;20424;-70
2021/08/14 03:17:42;;;;;;;2.58;2.10;;;;;;;27.57;30.94;100482.69;5052575;28;20033;-69
2021/08/14 03:20:10;;;;;;;2.47;2.28;;;;;;;27.54;30.49;100483.63;5052765;28;20460;-70
2021/08/14 03:22:36;;;;;;;2.90;2.35;;;;;;;27.39;30.93;100484.25;5051469;28;20067;-70
2021/08/14 03:25:03;;;;;;;2.65;2.45;;;;;;;27.34;31.56;100484.06;5068168;28;20029;-70
2021/08/14 03:27:35;;;;;;;5.10;2.97;;;;;;;27.37;30.94;100486.75;5067614;28;20052;-69
2021/08/14 03:30:00;;;;;;;5.68;2.65;;;;;;;27.44;31.10;100485.69;5068331;28;20025;-70
2021/08/14 03:32:26;;;;;;;6.63;2.80;;;;;;;27.27;31.37;100481.50;5051335;28;20032;-69
2021/08/14 03:34:51;;;;;;;4.25;2.50;;;;;;;27.28;31.44;100492.47;5068628;28;20043;-70
2021/08/14 03:37:20;;;;;;;5.03;3.10;;;;;;;27.24;31.62;100496.72;5051327;28;20025;-70
2021/08/14 03:39:51;;;;;;;4.68;3.08;;;;;;;27.24;31.46;100493.88;5068153;28;20498;-70
2021/08/14 03:42:22;;;;;;;2.42;2.22;;;;;;;27.20;32.12;100496.88;5067818;28;20529;-69
2021/08/14 03:44:50;;;;;;;3.67;2.67;;;;;;;27.10;32.28;100510.31;5068180;28;20067;-71
2021/08/14 03:47:16;;;;;;;7.60;3.40;;;;;;;27.19;32.24;100508.78;5068034;28;20379;-70
2021/08/14 03:49:47;;;;;;;4.45;2.85;;;;;;;27.17;32.18;100506.38;5068122;28;20028;-70
2021/08/14 03:52:15;;;;;;;4.65;2.88;;;;;;;27.07;32.75;100514.13;5071110;28;20056;-70
2021/08/14 03:54:46;;;;;;;4.30;3.08;;;;;;;26.96;32.62;100516.56;5071329;28;20108;-69
2021/08/14 03:57:15;;;;;;;2.92;2.72;;;;;;;26.89;33.15;100511.13;5054869;28;20446;-70
2021/08/14 03:59:40;;;;;;;3.50;3.20;;;;;;;26.81;33.28;100506.97;5071563;28;20033;-71
2021/08/14 04:02:06;;;;;;;4.32;3.92;;;;;;;26.80;33.63;100511.09;5054618;28;20036;-69
2021/08/14 04:04:37;;;;;;;3.72;3.38;;;;;;;26.74;33.32;100513.75;5071429;28;20029;-70
2021/08/14 04:07:09;;;;;;;3.92;3.53;;;;;;;26.69;33.81;100514.38;5071109;28;20460;-70
2021/08/14 04:09:37;;;;;;;4.13;3.67;;;;;;;26.72;34.46;100515.47;5054386;28;20024;-71
2021/08/14 04:12:03;;;;;;;10.60;3.95;;;;;;;26.75;34.55;100518.22;5071273;28;20353;-70
2021/08/14 04:14:29;;;;;;;3.75;3.05;;;;;;;26.85;34.24;100519.06;5070845;28;20033;-70
2021/08/14 04:16:58;;;;;;;5.38;3.60;;;;;;;26.97;33.69;100521.00;5071178;28;20033;-71
2021/08/14 04:19:27;;;;;;;5.78;3.15;;;;;;;27.02;33.43;100523.25;5054560;28;20029;-71
2021/08/14 04:21:54;;;;;;;10.25;3.42;;;;;;;27.06;32.89;100523.94;5054552;28;20116;-70
2021/08/14 04:24:23;;;;;;;7.88;3.17;;;;;;;27.04;33.08;100525.66;5054399;28;20075;-71
2021/08/14 04:26:52;;;;;;;7.20;3.67;;;;;;;27.11;32.75;100531.91;5070349;28;20103;-72
2021/08/14 04:29:20;;;;;;;5.80;3.17;;;;;;;27.05;32.96;100533.72;5070674;28;20025;-70
2021/08/14 04:31:46;;;;;;;6.90;2.88;;;;;;;27.02;33.02;100534.69;5070668;28;20044;-70
2021/08/14 04:34:12;;;;;;;6.95;2.80;;;;;;;27.07;32.72;100536.16;5070639;28;20032;-71
2021/08/14 04:36:37;;;;;;;6.40;2.72;;;;;;;27.13;32.75;100545.72;5070596;28;20033;-69
2021/08/14 04:39:06;;;;;;;6.90;2.75;;;;;;;27.24;32.58;100545.28;5070524;28;20036;-69
2021/08/14 04:41:34;;;;;;;3.28;2.90;;;;;;;27.72;32.01;100545.78;5070449;28;20036;-70
2021/08/14 04:44:06;;;;;;;5.82;3.08;;;;;;;28.06;31.43;100544.72;5070962;28;20040;-69
2021/08/14 04:46:31;;;;;;;3.20;2.77;;;;;;;28.41;30.73;100550.97;5053704;28;20025;-70
2021/08/14 04:48:57;;;;;;;5.68;3.20;;;;;;;28.81;30.33;100549.94;5070750;28;20423;-70
2021/08/14 04:51:23;;;;;;;2.88;2.65;;;;;;;29.18;30.17;100545.72;5070548;28;20099;-69
2021/08/14 04:53:51;;;;;;;5.70;3.20;;;;;;;29.54;29.82;100549.75;5070696;28;20041;-70
2021/08/14 04:56:19;;;;;;;4.32;3.20;;;;;;;29.87;29.42;100555.44;5070430;28;20036;-71
2021/08/14 04:58:45;;;;;;;3.08;2.78;;;;;;;30.11;28.11;100564.06;5070468;28;20407;-70
2021/08/14 05:01:14;;;;;;;5.97;2.90;;;;;;;30.42;28.01;100568.63;5053134;28;20029;-70
2021/08/14 05:03:40;;;;;;;3.90;2.40;;;;;;;30.80;27.45;100572.78;5050418;28;20036;-70
2021/08/14 05:06:09;;;;;;;3.00;2.58;;;;;;;31.14;27.01;100574.16;5053558;28;20170;-70
2021/08/14 05:08:35;;;;;;;3.83;3.00;;;;;;;31.46;26.98;100572.34;5069833;28;20032;-70
2021/08/14 05:11:07;;;;;;;3.40;3.10;;;;;;;31.67;26.53;100558.81;5053489;28;20032;-70
2021/08/14 05:13:35;;;;;;;3.35;2.97;;;;;;;31.94;26.11;100566.28;5070325;28;20029;-71
2021/08/14 05:16:01;;;;;;;4.20;3.00;;;;;;;32.30;26.08;100571.47;5053154;28;20061;-70
2021/08/14 05:18:26;;;;;;;3.53;3.22;;;;;;;32.61;25.22;100560.59;5069980;28;20029;-70
2021/08/14 05:20:58;;;;;;;4.55;2.70;;;;;;;32.89;24.95;100563.75;5069621;28;20033;-70
2021/08/14 05:23:26;;;;;;;4.20;3.17;;;;;;;33.20;24.53;100572.44;5069569;28;20067;-70
2021/08/14 05:25:52;;;;;;;3.05;2.30;;;;;;;33.56;23.86;100562.25;5069244;28;20031;-69
2021/08/14 05:28:18;;;;;;;3.05;2.75;;;;;;;33.89;23.70;100569.53;5069990;28;20029;-70
2021/08/14 05:30:43;;;;;;;3.88;2.75;;;;;;;34.16;23.57;100565.22;5070007;28;20467;-70
2021/08/14 05:33:09;;;;;;;2.80;2.60;;;;;;;34.48;23.23;100568.78;5069434;28;20436;-70
2021/08/14 05:35:34;;;;;;;4.80;3.15;;;;;;;34.54;22.86;100566.69;5069340;28;20033;-70
2021/08/14 05:38:00;;;;;;;4.55;3.47;;;;;;;35.04;22.31;100568.09;5069537;28;20053;-70
2021/08/14 05:40:28;;;;;;;6.03;2.70;;;;;;;35.37;22.24;100568.13;5069118;28;20044;-70
2021/08/14 05:42:57;;;;;;;3.03;2.70;;;;;;;35.61;21.93;100570.47;5069241;28;20029;-70
2021/08/14 05:45:25;;;;;;;5.78;3.28;;;;;;;35.85;21.34;100567.00;5069195;28;20031;-71
2021/08/14 05:47:50;;;;;;;3.53;3.10;;;;;;;36.02;21.12;100575.66;5069529;28;20029;-70
2021/08/14 05:50:18;;;;;;;4.93;2.83;;;;;;;36.31;20.82;100574.19;5051913;28;20539;-70
2021/08/14 05:52:47;;;;;;;3.60;2.90;;;;;;;36.32;20.33;100569.97;5069100;28;20119;-70
2021/08/14 05:55:12;;;;;;;3.28;2.65;;;;;;;36.58;20.35;100566.72;5069054;28;20487;-70
2021/08/14 05:57:38;;;;;;;3.10;2.70;;;;;;;36.77;20.56;100577.69;5052351;28;20024;-70
2021/08/14 06:00:05;;;;;;;4.15;2.75;;;;;;;36.87;20.21;100550.72;5068857;28;20036;-69
2021/08/14 06:02:30;;;;;;;2.78;2.58;;;;;;;37.12;19.41;100571.88;5069436;28;20029;-70
2021/08/14 06:04:56;;;;;;;2.50;2.30;;;;;;;37.27;19.19;100577.31;5069408;28;20491;-70
2021/08/14 06:07:22;;;;;;;4.10;2.40;;;;;;;37.59;18.62;100579.66;5069284;28;20037;-70
2021/08/14 06:09:47;;;;;;;2.45;2.10;;;;;;;37.94;18.22;100576.69;5052118;28;20448;-70
2021/08/14 06:12:13;;;;;;;5.03;2.20;;;;;;;37.94;18.26;100570.09;5068874;28;20025;-70
2021/08/14 06:14:42;;;;;;;3.70;2.58;;;;;;;37.69;17.83;100578.78;5068315;28;20039;-71
2021/08/14 06:17:11;;;;;;;2.60;2.38;;;;;;;37.46;17.53;100572.41;5068786;28;20029;-70
2021/08/14 06:19:37;;;;;;;3.85;2.67;;;;;;;36.96;17.61;100576.50;5053546;28;20025;-70
2021/08/14 06:22:09;;;;;;;3.47;3.17;;;;;;;37.83;17.29;100579.72;5068849;28;20028;-70
2021/08/14 06:24:37;;;;;;;3.05;2.80;;;;;;;38.05;16.89;100574.97;5069136;28;20120;-70
2021/08/14 06:27:03;;;;;;;4.28;2.75;;;;;;;38.11;17.11;100573.56;5068390;28;20095;-72
2021/08/14 06:29:35;;;;;;;2.50;2.20;;;;;;;38.11;16.88;100570.66;5068584;28;20033;-70
2021/08/14 06:32:03;;;;;;;4.85;3.10;;;;;;;38.21;16.84;100571.88;5068427;28;20112;-71
2021/08/14 06:34:35;;;;;;;3.47;2.90;;;;;;;38.36;16.89;100571.44;5068546;28;20124;-71
2021/08/14 06:37:03;;;;;;;3.10;2.73;;;;;;;38.37;17.14;100578.81;5069200;28;20372;-71
2021/08/14 06:39:31;;;;;;;3.08;2.88;;;;;;;37.87;17.28;100579.41;5069098;28;20427;-71
2021/08/14 06:41:57;;;;;;;4.00;2.60;;;;;;;37.37;17.73;100578.56;5068459;28;20036;-71
2021/08/14 06:44:25;;;;;;;2.53;2.25;;;;;;;37.40;17.49;100586.19;5068454;28;20029;-71
2021/08/14 06:46:54;;;;;;;3.88;2.78;;;;;;;36.94;18.22;100579.16;5068761;28;20575;-72
2021/08/14 06:49:25;;;;;;;3.03;2.83;;;;;;;36.89;18.61;100577.06;5068711;28;20120;-73
2021/08/14 06:51:53;;;;;;;5.43;2.72;;;;;;;36.84;18.49;100569.19;5053559;28;20047;-71
2021/08/14 06:54:22;;;;;;;4.85;2.97;;;;;;;37.39;18.00;100580.91;5068320;28;20029;-72
2021/08/14 06:56:48;;;;;;;4.75;3.03;;;;;;;37.28;19.11;100578.09;5068345;28;20096;-71
2021/08/14 06:59:13;;;;;;;3.08;2.88;;;;;;;37.30;18.41;100575.44;5068676;28;20033;-72
2021/08/14 07:01:39;;;;;;;4.95;4.25;;;;;;;37.59;17.77;100576.78;5051581;28;20036;-71
2021/08/14 07:04:07;;;;;;;3.58;2.65;;;;;;;37.57;17.78;100565.72;5068441;28;20036;-72
2021/08/14 07:06:36;;;;;;;4.88;3.05;;;;;;;37.71;18.07;100581.13;5068266;28;20065;-71
2021/08/14 07:09:08;;;;;;;4.47;2.80;;;;;;;37.61;17.95;100577.03;5051458;28;20025;-70
2021/08/14 07:11:36;;;;;;;4.43;2.85;;;;;;;37.91;17.64;100577.75;5068156;28;20029;-72
2021/08/14 07:14:07;;;;;;;3.13;2.83;;;;;;;38.83;17.12;100573.94;5068545;28;20106;-71
2021/08/14 07:16:35;;;;;;;3.35;2.50;;;;;;;38.83;16.07;100573.94;5051653;28;20124;-71
2021/08/14 07:19:02;;;;;;;3.05;2.78;;;;;;;38.75;16.16;100578.84;5052744;28;20048;-72
2021/08/14 07:21:31;;;;;;;3.20;2.22;;;;;;;38.37;16.16;100578.81;5068118;28;20033;-72
2021/08/14 07:23:59;;;;;;;3.13;2.47;;;;;;;38.69;16.26;100578.09;5068523;28;20387;-72
2021/08/14 07:26:28;;;;;;;2.10;2.00;;;;;;;39.24;14.99;100584.41;5069901;28;20057;-72
2021/08/14 07:28:53;;;;;;;3.13;2.40;;;;;;;38.97;16.18;100581.38;5071695;28;20021;-73
2021/08/14 07:31:22;;;;;;;2.50;2.30;;;;;;;39.48;15.70;100592.22;5071791;28;20067;-72
2021/08/14 07:33:50;;;;;;;3.22;2.55;;;;;;;40.00;15.71;100594.41;5071788;28;20108;-71
2021/08/14 07:36:16;;;;;;;2.95;2.70;;;;;;;40.01;15.67;100587.25;5071727;28;20071;-71
2021/08/14 07:38:44;;;;;;;3.55;2.67;;;;;;;39.70;16.05;100586.00;5072024;28;20071;-71
2021/08/14 07:41:15;;;;;;;4.63;2.92;;;;;;;39.62;16.59;100588.00;5055436;28;20380;-71
2021/08/14 07:43:46;;;;;;;4.95;2.78;;;;;;;38.89;17.29;100586.28;5071658;28;20017;-70
2021/08/14 07:46:14;;;;;;;4.50;2.72;;;;;;;38.80;17.01;100586.69;5055454;28;20025;-71
2021/08/14 07:48:45;;;;;;;3.47;2.53;;;;;;;38.97;16.57;100587.22;5071689;28;20096;-73
2021/08/14 07:51:13;;;;;;;3.83;2.75;;;;;;;39.84;16.14;100583.88;5071433;28;20132;-72
2021/08/14 07:53:39;;;;;;;3.13;2.83;;;;;;;40.49;15.56;100588.13;5071618;28;20057;-72
2021/08/14 07:56:05;;;;;;;3.88;3.53;;;;;;;40.18;16.17;100591.97;5071293;28;20475;-71
2021/08/14 07:58:33;;;;;;;5.43;3.45;;;;;;;38.82;17.54;100584.00;5071337;28;20029;-70
2021/08/14 08:01:05;;;;;;;5.50;4.15;;;;;;;39.19;16.56;100586.09;5071518;28;20056;-72
2021/08/14 08:03:35;;;;;;;5.30;3.47;;;;;;;39.59;16.68;100592.00;5054921;28;20123;-71
2021/08/14 08:06:06;;;;;;;4.28;3.67;;;;;;;39.42;16.47;100595.22;5055836;28;20498;-72
2021/08/14 08:08:35;;;;;;;3.85;2.95;;;;;;;40.04;16.13;100580.28;5054681;28;20025;-72
2021/08/14 08:11:01;;;;;;;3.00;2.67;;;;;;;40.09;14.92;100593.19;5071087;28;20090;-71
2021/08/14 08:13:32;;;;;;;2.90;2.70;;;;;;;40.49;15.03;100591.06;5071102;28;20036;-72
2021/08/14 08:15:58;;;;;;;3.30;2.93;;;;;;;40.70;14.89;100590.31;5071102;28;20033;-73
2021/08/14 08:18:26;;;;;;;3.47;2.70;;;;;;;41.11;14.56;100589.59;5070922;28;20321;-70
2021/08/14 08:20:55;;;;;;;3.10;2.80;;;;;;;41.27;14.14;100600.06;5054838;28;20475;-70
2021/08/14 08:23:20;;;;;;;4.75;2.42;;;;;;;41.52;13.96;100597.59;5054700;28;20120;-72
2021/08/14 08:25:46;;;;;;;5.22;3.22;;;;;;;41.91;13.76;100592.84;5071391;28;20373;-72
2021/08/14 08:28:19;;;;;;;3.33;2.70;;;;;;;41.83;13.50;100597.88;5070187;28;20507;-71
2021/08/14 08:30:47;;;;;;;3.63;3.13;;;;;;;41.50;14.01;100587.88;5071092;28;20033;-72
2021/08/14 08:33:13;;;;;;;7.45;3.00;;;;;;;41.97;13.75;100593.47;5054263;28;20461;-72
2021/08/14 08:35:39;;;;;;;3.72;3.10;;;;;;;41.83;13.92;100589.09;5070576;28;20025;-72
2021/08/14 08:38:08;;;;;;;3.35;2.88;;;;;;;41.58;14.28;100577.78;5070381;28;20072;-72
2021/08/14 08:40:41;;;;;;;5.30;3.30;;;;;;;40.75;14.75;100583.56;5071337;28;20040;-72
2021/08/14 08:43:10;;;;;;;3.00;2.78;;;;;;;41.04;13.94;100576.53;5053901;28;20037;-72
2021/08/14 08:45:47;;;;;;;3.10;2.10;;;;;;;41.49;13.93;100589.97;5070517;28;20025;-72
2021/08/14 08:48:20;;;;;;;4.05;2.50;;;;;;;42.41;13.54;100581.06;5053668;28;20033;-71
2021/08/14 08:50:48;;;;;;;4.13;2.90;;;;;;;42.46;12.90;100577.19;5055551;28;20071;-72
2021/08/14 08:53:16;;;;;;;2.95;2.75;;;;;;;41.84;13.36;100579.75;5055049;28;20029;-71
2021/08/14 08:55:46;;;;;;;7.03;2.85;;;;;;;41.39;13.52;100571.44;5070811;28;20033;-72
2021/08/14 08:58:15;;;;;;;2.28;2.15;;;;;;;41.21;13.66;100578.22;5053561;28;20025;-73
2021/08/14 09:00:45;;;;;;;3.20;2.90;;;;;;;41.06;13.79;100565.03;5070183;28;20033;-72
2021/08/14 09:03:15;;;;;;;3.25;2.30;;;;;;;41.60;13.47;100572.19;5070345;28;20043;-72
2021/08/14 09:05:46;;;;;;;3.47;2.03;;;;;;;42.35;12.60;100566.63;5070475;28;20048;-71
2021/08/14 09:08:12;;;;;;;2.43;2.23;;;;;;;41.10;13.59;100574.25;5069919;28;20029;-72
2021/08/14 09:10:41;;;;;;;5.38;2.78;;;;;;;40.85;13.10;100565.00;5054858;28;20350;-72
2021/08/14 09:13:12;;;;;;;3.47;2.63;;;;;;;40.28;13.78;100558.09;5053274;28;20032;-73
2021/08/14 09:15:38;;;;;;;2.80;2.10;;;;;;;40.57;13.35;100561.97;5069605;28;20125;-71
2021/08/14 09:18:09;;;;;;;2.92;2.30;;;;;;;40.61;13.13;100562.41;5070055;28;20036;-71
2021/08/14 09:20:45;;;;;;;2.58;2.25;;;;;;;41.61;13.07;100564.97;5069680;28;20036;-72
2021/08/14 09:23:11;;;;;;;5.10;2.58;;;;;;;42.48;11.97;100563.53;5069641;28;20024;-72
2021/08/14 09:25:45;;;;;;;2.25;2.15;;;;;;;42.59;12.25;100557.34;5070138;28;20036;-73
2021/08/14 09:28:12;;;;;;;3.22;2.17;;;;;;;42.79;12.69;100551.97;5053898;28;20081;-71
2021/08/14 09:30:51;;;;;;;3.53;2.90;;;;;;;42.63;12.00;100557.78;5069521;28;20033;-72
2021/08/14 09:33:20;;;;;;;2.30;2.20;;;;;;;42.27;11.72;100549.03;5069530;28;20037;-72
2021/08/14 09:35:47;;;;;;;3.67;2.38;;;;;;;41.66;12.38;100547.84;5070224;28;20029;-72
2021/08/14 09:38:15;;;;;;;7.85;2.30;;;;;;;41.90;13.01;100532.84;5069634;28;20029;-73
2021/08/14 09:40:43;;;;;;;3.85;2.47;;;;;;;41.18;12.05;100544.34;5069273;28;20112;-73
2021/08/14 09:43:10;;;;;;;2.92;2.65;;;;;;;41.69;12.70;100552.56;5052330;28;20032;-73
2021/08/14 09:45:36;;;;;;;3.75;2.38;;;;;;;41.80;12.59;100546.41;5053070;28;20059;-72
2021/08/14 09:48:20;;;;;;;2.70;2.50;;;;;;;41.42;13.23;100541.06;5051920;28;20021;-72
2021/08/14 09:50:46;;;;;;;5.20;3.05;;;;;;;41.22;13.79;100536.00;5052585;28;20033;-72
2021/08/14 09:53:21;;;;;;;6.00;3.92;;;;;;;42.30;15.19;100532.50;5052443;28;20056;-71
2021/08/14 09:55:54;;;;;;;4.15;3.63;;;;;;;42.12;15.23;100538.00;5054026;28;20059;-71
2021/08/14 09:58:24;;;;;;;3.88;3.35;;;;;;;42.80;14.38;100530.09;5069064;28;20174;-73
2021/08/14 10:00:50;;;;;;;5.35;3.60;;;;;;;43.34;13.99;100525.09;5069578;28;20064;-72
2021/08/14 10:03:17;;;;;;;3.92;3.47;;;;;;;42.20;14.30;100525.63;5052494;28;20025;-72
2021/08/14 10:05:44;;;;;;;5.93;3.65;;;;;;;42.06;15.17;100528.63;5069276;28;20032;-73
2021/08/14 10:08:13;;;;;;;4.07;3.55;;;;;;;41.15;15.76;100516.31;5068909;28;20036;-72
2021/08/14 10:10:42;;;;;;;4.55;4.03;;;;;;;41.60;16.42;100519.59;5052238;28;20040;-72
2021/08/14 10:13:12;;;;;;;5.82;4.18;;;;;;;41.07;18.30;100519.94;5069145;28;20120;-72
2021/08/14 10:15:38;;;;;;;3.90;3.58;;;;;;;41.59;18.71;100518.03;5068958;28;20025;-72
2021/08/14 10:18:04;;;;;;;4.43;3.63;;;;;;;42.35;18.44;100514.00;5052243;28;20059;-72
2021/08/14 10:20:30;;;;;;;4.32;3.92;;;;;;;42.08;18.31;100501.75;5052128;28;20029;-71
2021/08/14 10:23:09;;;;;;;8.02;3.70;;;;;;;41.47;18.12;100496.34;5068784;28;20037;-71
2021/08/14 10:25:38;;;;;;;4.60;3.38;;;;;;;41.59;17.90;100491.72;5069231;28;20438;-71
2021/08/14 10:28:06;;;;;;;4.15;3.85;;;;;;;41.41;18.95;100498.63;5051441;28;20106;-71
2021/08/14 10:30:44;;;;;;;4.38;3.90;;;;;;;41.60;19.10;100493.31;5052459;28;20032;-71
2021/08/14 10:33:35;;;;;;;3.90;3.60;;;;;;;42.04;18.22;100496.31;5068679;28;20041;-72
2021/08/14 10:36:16;;;;;;;6.00;3.90;;;;;;;41.93;19.07;100484.19;5032783;28;20053;-71
2021/08/14 10:38:47;;;;;;;4.30;3.90;;;;;;;41.04;19.89;100483.16;5068594;28;20037;-72
2021/08/14 10:41:13;;;;;;;3.70;3.08;;;;;;;41.05;19.53;100478.88;5068912;28;20087;-71
2021/08/14 10:43:54;;;;;;;5.47;3.60;;;;;;;40.89;18.96;100482.97;5051842;28;20460;-71
2021/08/14 10:46:37;;;;;;;3.90;3.55;;;;;;;40.62;18.65;100467.75;5068532;28;20044;-72
2021/08/14 10:49:04;;;;;;;3.83;3.30;;;;;;;40.74;18.20;100468.25;5068945;28;20497;-72
2021/08/14 10:52:08;;;;;;;4.13;3.17;;;;;;;41.26;17.78;100463.47;5069037;28;20025;-71
2021/08/14 10:54:40;;;;;;;4.30;3.08;;;;;;;41.02;18.45;100465.44;5014341;28;20160;-71
2021/08/14 10:57:09;;;;;;;2.88;2.67;;;;;;;41.14;17.49;100463.00;5014970;28;20084;-71
2021/08/14 10:59:38;;;;;;;5.18;3.17;;;;;;;41.22;18.18;100475.50;5043373;28;20053;-72
2021/08/14 11:02:09;;;;;;;5.22;3.17;;;;;;;40.62;18.59;100461.91;5072578;28;20096;-73
2021/08/14 11:04:55;;;;;;;3.53;3.22;;;;;;;40.89;18.49;100465.47;5072355;28;20033;-72
2021/08/14 11:07:29;;;;;;;5.07;3.08;;;;;;;40.64;18.16;100456.28;5072503;28;20495;-72
2021/08/14 11:09:58;;;;;;;3.13;2.75;;;;;;;40.35;17.86;100437.91;5072385;28;20028;-73
2021/08/14 11:12:44;;;;;;;4.68;2.72;;;;;;;40.48;18.56;100455.31;5072260;28;20535;-72
2021/08/14 11:15:22;;;;;;;3.13;2.75;;;;;;;40.58;17.83;100452.75;5072388;28;20425;-73
2021/08/14 11:17:53;;;;;;;3.80;3.05;;;;;;;40.72;17.69;100454.25;5072199;28;20040;-73
2021/08/14 11:20:18;;;;;;;4.40;2.90;;;;;;;41.35;17.01;100448.38;5072302;28;20029;-71
2021/08/14 11:22:45;;;;;;;3.28;2.67;;;;;;;41.24;16.20;100449.44;5072638;28;20670;-72
2021/08/14 11:25:23;;;;;;;3.88;2.50;;;;;;;41.84;15.73;100439.53;5072286;28;20060;-72
2021/08/14 11:28:04;;;;;;;3.38;2.65;;;;;;;41.88;14.56;100436.25;5071384;28;20053;-73
2021/08/14 11:30:33;;;;;;;3.00;2.58;;;;;;;42.31;14.21;100422.94;5055544;28;20021;-71